Time;durP1;ratioP1;P1;durP2;ratioP2;P2;SDS_P1;SDS_P2;PMS_P1;PMS_P2;Temp;Humidity;BMP_temperature;BMP_pressure;BME280_temperature;BME280_humidity;BME280_pressure;Samples;Min_cycle;Max_cycle;Signal;HPM_P1;HPM_P2
2022/02/06 00:01:06;;;;;;;1.63;1.52;;;;;;;21.15;20.77;94932.75;4878682;28;20039;-67
2022/02/06 00:03:31;;;;;;;1.70;1.60;;;;;;;21.13;20.83;94931.38;4914069;29;20046;-67
2022/02/06 00:05:57;;;;;;;1.92;1.60;;;;;;;21.12;20.89;94929.81;4924669;29;20031;-68
2022/02/06 00:08:22;;;;;;;1.80;1.50;;;;;;;21.13;20.97;94928.75;4943993;28;20027;-68
2022/02/06 00:10:49;;;;;;;1.60;1.50;;;;;;;21.10;21.15;94919.47;4924359;28;20079;-67
2022/02/06 00:13:15;;;;;;;2.28;1.60;;;;;;;21.12;20.88;94925.31;4944239;28;20027;-68
2022/02/06 00:15:40;;;;;;;2.38;1.63;;;;;;;21.13;20.90;94926.88;4937055;28;20034;-67
2022/02/06 00:18:05;;;;;;;2.15;1.55;;;;;;;21.14;21.06;94917.13;4926550;28;20034;-67
2022/02/06 00:20:39;;;;;;;2.35;1.60;;;;;;;21.14;21.10;94923.19;4939632;28;20030;-68
2022/02/06 00:23:10;;;;;;;1.80;1.38;;;;;;;21.12;20.71;94920.00;4932269;28;20035;-68
2022/02/06 00:25:53;;;;;;;2.22;1.60;;;;;;;21.17;20.71;94916.59;4927839;28;20031;-68
2022/02/06 00:28:35;;;;;;;2.22;1.55;;;;;;;21.16;20.95;94915.03;4876495;29;20120;-68
2022/02/06 00:31:15;;;;;;;2.13;1.40;;;;;;;21.16;20.80;94905.25;4879581;29;20119;-68
2022/02/06 00:39:13;;;;;;;2.55;1.70;;;;;;;21.14;20.60;94906.56;4823603;29;20046;-67
2022/02/06 00:41:39;;;;;;;1.75;1.50;;;;;;;21.13;20.70;94910.22;4816541;29;20053;-67
2022/02/06 00:44:05;;;;;;;1.60;1.50;;;;;;;21.11;20.93;94901.75;4807103;29;20036;-68
2022/02/06 00:46:32;;;;;;;1.63;1.40;;;;;;;21.11;20.63;94901.75;4798593;29;20046;-67
2022/02/06 00:49:00;;;;;;;2.40;1.55;;;;;;;21.11;20.51;94901.75;4816045;29;20121;-67
2022/02/06 00:51:38;;;;;;;1.40;1.30;;;;;;;21.06;20.80;94898.00;4828821;29;20033;-67
2022/02/06 00:54:04;;;;;;;1.77;1.65;;;;;;;21.13;20.50;94897.00;4801818;29;20106;-67
2022/02/06 00:56:41;;;;;;;1.90;1.70;;;;;;;21.11;20.73;94889.31;4822630;29;20030;-67
2022/02/06 00:59:20;;;;;;;;;;;;;;;21.64;20.23;94889.47;4817277;29;20038;-68
2022/02/06 01:01:48;;;;;;;2.25;1.40;;;;;;;21.25;20.44;94881.78;4817866;29;20008;-67
2022/02/06 01:04:13;;;;;;;2.10;1.38;;;;;;;21.17;20.73;94866.34;4828351;29;20046;-67
2022/02/06 01:06:39;;;;;;;2.42;1.65;;;;;;;21.15;20.24;94868.47;4866107;29;20076;-67
2022/02/06 01:09:04;;;;;;;1.92;1.58;;;;;;;21.13;20.52;94876.63;4897868;29;20113;-67
2022/02/06 01:11:34;;;;;;;1.80;1.50;;;;;;;21.10;20.88;94871.88;4872160;29;20275;-68
2022/02/06 01:16:36;;;;;;;1.90;1.42;;;;;;;21.12;20.42;94871.63;4927287;29;20074;-68
2022/02/06 01:19:07;;;;;;;1.50;1.40;;;;;;;21.12;20.34;94858.41;4931618;29;20039;-68
2022/02/06 01:21:54;;;;;;;;;;;;;;;;;;;;;
2022/02/06 01:24:26;;;;;;;1.58;1.33;;;;;;;21.14;20.52;94858.94;4958083;28;20256;-67
2022/02/06 01:27:18;;;;;;;2.65;1.70;;;;;;;21.15;20.15;94863.16;4931921;28;20039;-68
2022/02/06 01:29:56;;;;;;;1.58;1.40;;;;;;;21.14;20.37;94858.94;4926088;28;20024;-68
2022/02/06 01:32:52;;;;;;;1.98;1.45;;;;;;;21.19;20.19;94853.69;4936358;29;20030;-67
2022/02/06 01:35:26;;;;;;;1.58;1.42;;;;;;;21.16;20.45;94859.50;4917765;28;20051;-68
2022/02/06 01:38:03;;;;;;;1.63;1.52;;;;;;;21.14;20.56;94858.94;4873783;29;20102;-68
2022/02/06 01:43:08;;;;;;;1.77;1.55;;;;;;;21.11;20.55;94840.94;4874698;29;20127;-68
2022/02/06 01:46:06;;;;;;;1.67;1.50;;;;;;;21.16;20.64;94846.25;4860202;29;20150;-68
2022/02/06 02:13:18;;;;;;;2.92;1.60;;;;;;;21.11;20.38;94814.47;4881475;29;20043;-68
2022/02/06 02:47:47;;;;;;;1.80;1.65;;;;;;;21.16;20.35;94793.38;4940851;28;20038;-68
2022/02/06 02:50:16;;;;;;;1.70;1.60;;;;;;;21.16;20.77;94794.16;4922231;29;20039;-67
2022/02/06 02:57:58;;;;;;;1.60;1.50;;;;;;;21.11;20.51;94775.59;4921217;28;20165;-68
2022/02/06 03:00:33;;;;;;;2.00;1.60;;;;;;;21.15;20.86;94783.84;4946389;28;20035;-67
2022/02/06 03:05:36;;;;;;;1.95;1.58;;;;;;;21.14;20.70;94790.19;4948091;28;20035;-68
2022/02/06 03:08:04;;;;;;;1.73;1.58;;;;;;;21.11;20.56;94791.47;4936711;28;20022;-67
2022/02/06 03:10:37;;;;;;;2.05;1.70;;;;;;;21.13;20.80;94796.50;4934329;28;20106;-68
2022/02/06 03:13:06;;;;;;;1.70;1.60;;;;;;;21.13;20.66;94792.00;4918703;28;20483;-67
2022/02/06 03:15:45;;;;;;;2.83;1.60;;;;;;;21.13;20.56;94794.66;4934992;28;20035;-68
2022/02/06 03:18:18;;;;;;;1.90;1.70;;;;;;;21.14;20.80;94790.19;4954230;28;20027;-67
2022/02/06 03:20:43;;;;;;;2.08;1.90;;;;;;;21.14;20.81;94793.63;4903252;28;20089;-68
2022/02/06 03:23:11;;;;;;;2.10;1.90;;;;;;;21.16;20.97;94794.16;4925099;28;20118;-68
2022/02/06 03:25:45;;;;;;;3.35;1.95;;;;;;;21.16;20.62;94794.16;4932080;29;20064;-68
2022/02/06 03:28:10;;;;;;;1.80;1.70;;;;;;;21.16;20.97;94799.44;4921405;28;20026;-67
2022/02/06 03:30:35;;;;;;;1.77;1.67;;;;;;;21.15;20.89;94803.16;4929325;28;20046;-67
2022/02/06 03:33:01;;;;;;;1.92;1.80;;;;;;;21.16;20.80;94803.94;4937415;28;20093;-67
2022/02/06 03:35:27;;;;;;;2.30;1.95;;;;;;;21.17;20.73;94802.88;4937512;28;20078;-67
2022/02/06 03:38:01;;;;;;;1.85;1.75;;;;;;;21.15;20.64;94803.16;4932308;28;20063;-67
2022/02/06 03:40:34;;;;;;;2.10;1.80;;;;;;;21.16;20.67;94810.03;4925868;28;20357;-68
2022/02/06 03:43:11;;;;;;;2.20;2.00;;;;;;;21.17;20.99;94816.09;4944010;28;20027;-67
2022/02/06 03:48:43;;;;;;;2.10;1.90;;;;;;;21.19;20.71;94811.34;4944856;28;20034;-68
2022/02/06 03:51:17;;;;;;;2.50;2.30;;;;;;;21.18;21.01;94802.63;4927727;29;20034;-67
2022/02/06 03:53:44;;;;;;;2.00;1.80;;;;;;;21.16;20.90;94810.03;4943687;28;20038;-67
2022/02/06 03:56:10;;;;;;;3.38;2.10;;;;;;;21.17;20.76;94800.25;4933920;28;20082;-68
2022/02/06 03:58:41;;;;;;;2.40;2.20;;;;;;;21.15;20.92;94802.34;4931603;28;20034;-68
2022/02/06 04:01:07;;;;;;;1.80;1.70;;;;;;;21.15;20.98;94802.34;4928426;28;20095;-68
2022/02/06 04:03:32;;;;;;;2.00;1.80;;;;;;;21.14;20.74;94787.53;4932305;28;20109;-67
2022/02/06 04:05:58;;;;;;;2.15;1.90;;;;;;;21.16;20.90;94788.88;4918227;29;20035;-68
2022/02/06 04:08:28;;;;;;;2.10;1.90;;;;;;;21.15;20.58;94791.75;4932909;28;20031;-68
2022/02/06 04:10:57;;;;;;;4.18;1.77;;;;;;;21.18;20.72;94791.28;4917980;28;20118;-67
2022/02/06 04:13:27;;;;;;;2.90;1.88;;;;;;;21.11;20.93;94793.34;4941020;28;20044;-67
2022/02/06 04:16:01;;;;;;;2.42;1.80;;;;;;;21.12;20.80;94784.34;4922278;28;20027;-68
2022/02/06 04:18:50;;;;;;;1.98;1.80;;;;;;;21.14;21.00;94782.25;4922968;28;20027;-67
2022/02/06 04:21:12;;;;;;;2.17;1.73;;;;;;;21.17;20.51;94779.91;4942333;28;20039;-67
2022/02/06 04:23:37;;;;;;;2.95;1.50;;;;;;;21.12;20.69;94773.78;4923906;29;20111;-68
2022/02/06 04:26:05;;;;;;;2.85;1.40;;;;;;;21.08;20.74;94774.28;4924637;29;20063;-67
2022/02/06 04:28:36;;;;;;;2.42;1.50;;;;;;;21.00;20.62;94766.84;4921358;29;20031;-68
2022/02/06 04:31:02;;;;;;;2.13;1.20;;;;;;;21.01;20.03;94768.41;4924866;28;20115;-68
2022/02/06 04:33:27;;;;;;;2.20;1.20;;;;;;;20.95;20.37;94756.22;4932595;29;20035;-68
2022/02/06 04:35:57;;;;;;;2.75;1.35;;;;;;;20.94;20.18;94753.81;4922578;29;20043;-68
2022/02/06 04:41:23;;;;;;;1.90;1.20;;;;;;;20.86;20.04;94749.78;4913517;29;20086;-68
2022/02/06 04:44:45;;;;;;;2.03;1.25;;;;;;;20.83;20.12;94755.59;4940997;29;20054;-67
2022/02/06 04:53:16;;;;;;;2.80;1.23;;;;;;;20.74;19.99;94751.84;4936177;29;20075;-67
2022/02/06 04:55:38;;;;;;;1.63;1.10;;;;;;;20.74;19.93;94760.56;4926952;29;20035;-68
2022/02/06 05:13:05;;;;;;;1.80;1.17;;;;;;;20.66;19.36;94735.38;4896874;29;20081;-67
2022/02/06 05:15:16;;;;;;;1.65;0.90;;;;;;;20.70;19.44;94727.75;4890740;29;20093;-67
2022/02/06 05:25:56;;;;;;;2.58;0.88;;;;;;;20.61;19.58;94726.63;4896803;29;20091;-67
2022/02/06 05:28:26;;;;;;;1.35;1.00;;;;;;;20.63;19.11;94722.66;4909955;29;20118;-67
2022/02/06 05:30:59;;;;;;;1.65;1.10;;;;;;;20.59;19.38;94720.75;4892131;29;20039;-67
2022/02/06 05:33:24;;;;;;;1.35;0.90;;;;;;;20.57;19.33;94715.72;4905294;29;20021;-68
2022/02/06 05:35:50;;;;;;;2.28;1.00;;;;;;;20.57;19.20;94721.00;4907260;29;20039;-67
2022/02/06 05:38:15;;;;;;;1.52;1.00;;;;;;;20.55;19.36;94720.47;4920937;28;20035;-68
2022/02/06 05:40:41;;;;;;;1.40;0.90;;;;;;;20.53;19.27;94706.72;4924415;28;20034;-67
2022/02/06 05:43:15;;;;;;;1.20;0.88;;;;;;;20.46;19.29;94701.63;4945684;28;20034;-67
2022/02/06 05:45:40;;;;;;;1.67;0.93;;;;;;;20.48;19.18;94688.16;4933587;28;20030;-67
2022/02/06 05:48:06;;;;;;;1.27;0.95;;;;;;;20.46;19.66;94687.63;4948314;28;20035;-67
2022/02/06 05:50:31;;;;;;;1.65;1.20;;;;;;;20.44;19.80;94687.88;4933098;28;20019;-67
2022/02/06 05:52:59;;;;;;;1.85;0.98;;;;;;;20.45;19.55;94699.25;4918548;28;20046;-67
2022/02/06 05:55:24;;;;;;;2.17;1.20;;;;;;;20.42;19.75;94682.06;4932671;29;20032;-67
2022/02/06 05:57:50;;;;;;;1.75;1.00;;;;;;;20.45;19.70;94683.41;4901460;28;20031;-67
2022/02/06 06:00:15;;;;;;;1.42;1.05;;;;;;;20.45;19.82;94673.63;4925338;28;20036;-68
2022/02/06 06:02:44;;;;;;;2.65;1.20;;;;;;;20.40;19.95;94675.44;4917102;28;20035;-68
2022/02/06 06:05:09;;;;;;;1.65;1.05;;;;;;;20.38;20.04;94677.53;4936390;28;20030;-67
2022/02/06 06:07:40;;;;;;;1.75;1.10;;;;;;;20.37;19.72;94683.84;4948508;28;20058;-67
2022/02/06 06:10:05;;;;;;;;;;;;;;;20.89;19.50;94678.72;4911330;28;20067;-67
2022/02/06 06:12:31;;;;;;;1.90;1.20;;;;;;;20.54;19.63;94697.72;4941351;28;19950;-67
2022/02/06 06:14:56;;;;;;;1.98;1.00;;;;;;;20.47;19.49;94697.16;4915914;28;20028;-67
2022/02/06 06:17:22;;;;;;;1.42;1.13;;;;;;;20.41;19.61;94695.50;4915609;29;20027;-68
2022/02/06 06:19:48;;;;;;;1.20;1.10;;;;;;;20.42;19.76;94699.75;4914826;28;20028;-67
2022/02/06 06:22:22;;;;;;;2.42;1.27;;;;;;;20.37;19.91;94691.78;4936301;28;20090;-67
2022/02/06 06:24:54;;;;;;;1.30;1.10;;;;;;;20.39;19.88;94695.78;4936610;28;20027;-67
2022/02/06 06:27:20;;;;;;;2.80;1.20;;;;;;;20.38;20.01;94688.91;4928807;28;20110;-67
2022/02/06 06:29:46;;;;;;;1.20;1.10;;;;;;;20.37;20.22;94697.06;4926674;28;20039;-67
2022/02/06 06:32:14;;;;;;;1.40;1.00;;;;;;;20.35;19.95;94701.81;4926814;28;20095;-67
2022/02/06 06:34:39;;;;;;;1.10;1.00;;;;;;;20.37;20.13;94700.53;4942547;28;20039;-67
2022/02/06 06:37:05;;;;;;;2.35;1.23;;;;;;;20.39;20.08;94705.53;4929986;29;20027;-67
2022/02/06 06:39:38;;;;;;;1.33;1.10;;;;;;;20.34;19.90;94714.22;4924835;28;20118;-67
2022/02/06 06:42:04;;;;;;;1.50;1.20;;;;;;;20.35;19.90;94709.72;4942171;28;20034;-68
2022/02/06 06:44:29;;;;;;;1.13;1.00;;;;;;;20.35;20.12;94705.22;4924956;29;20034;-67
2022/02/06 06:46:55;;;;;;;2.70;1.20;;;;;;;20.38;19.72;94704.75;4925912;29;20039;-67
2022/02/06 06:49:20;;;;;;;1.38;1.20;;;;;;;20.36;20.14;94692.84;4939675;28;20031;-67
2022/02/06 06:51:46;;;;;;;1.30;0.90;;;;;;;20.39;19.94;94692.31;4925686;29;20036;-67
2022/02/06 06:54:16;;;;;;;1.20;1.10;;;;;;;20.39;19.72;94700.25;4933455;28;20059;-68
2022/02/06 06:56:50;;;;;;;2.38;1.10;;;;;;;20.37;19.53;94694.41;4909596;29;20063;-67
2022/02/06 07:04:48;;;;;;;1.30;1.05;;;;;;;20.29;19.50;94683.25;4935773;28;20066;-67
2022/02/06 07:07:14;;;;;;;1.40;0.90;;;;;;;20.25;19.64;94682.19;4929849;29;20076;-68
2022/02/06 07:09:39;;;;;;;1.55;1.08;;;;;;;20.26;19.46;94677.72;4917380;28;20141;-67
2022/02/06 07:12:10;;;;;;;2.65;0.95;;;;;;;20.23;19.28;94686.91;4927011;28;20087;-67
2022/02/06 07:14:36;;;;;;;1.30;0.80;;;;;;;20.22;19.47;94689.81;4932560;28;20039;-67
2022/02/06 07:17:02;;;;;;;1.25;0.93;;;;;;;20.22;19.16;94695.06;4937743;28;20027;-68
2022/02/06 07:19:28;;;;;;;1.40;0.90;;;;;;;20.21;19.42;94685.56;4931950;28;20174;-67
2022/02/06 07:21:56;;;;;;;1.05;0.80;;;;;;;20.17;19.21;94682.63;4916837;28;20034;-68
2022/02/06 07:24:25;;;;;;;0.90;0.80;;;;;;;20.23;19.23;94659.72;4929153;28;20024;-67
2022/02/06 07:26:52;;;;;;;1.38;0.80;;;;;;;20.24;19.30;94658.69;4935102;28;20033;-68
2022/02/06 07:29:18;;;;;;;0.93;0.63;;;;;;;20.22;19.52;94664.22;4920897;28;20023;-67
2022/02/06 07:31:45;;;;;;;1.85;0.90;;;;;;;20.26;19.04;94662.66;4917920;29;20026;-67
2022/02/06 07:34:11;;;;;;;2.25;0.90;;;;;;;20.25;19.14;94666.34;4917482;28;20049;-67
2022/02/06 07:36:36;;;;;;;1.15;0.80;;;;;;;20.25;19.17;94673.47;4936885;28;20027;-68
2022/02/06 07:39:03;;;;;;;1.35;0.77;;;;;;;20.27;19.39;94681.94;4915470;28;20031;-67
2022/02/06 07:41:28;;;;;;;1.80;0.90;;;;;;;20.25;19.25;94698.03;4916710;29;20058;-68
2022/02/06 07:43:53;;;;;;;1.25;0.80;;;;;;;20.28;19.03;94702.03;4918352;29;20019;-68
2022/02/06 07:46:23;;;;;;;1.23;0.80;;;;;;;20.28;19.37;94692.25;4942671;28;20090;-67
2022/02/06 07:48:48;;;;;;;1.92;0.80;;;;;;;20.33;19.19;94688.84;4922448;29;20039;-67
2022/02/06 07:51:14;;;;;;;1.80;0.82;;;;;;;20.35;19.36;94688.59;4913920;28;20023;-67
2022/02/06 07:53:39;;;;;;;1.63;0.88;;;;;;;20.39;19.33;94684.41;4925628;28;20027;-67
2022/02/06 07:56:05;;;;;;;1.55;0.90;;;;;;;20.41;19.34;94675.19;4908328;28;20031;-67
2022/02/06 07:58:30;;;;;;;1.35;0.80;;;;;;;20.41;19.21;94679.66;4921456;28;20052;-68
2022/02/06 08:00:55;;;;;;;2.08;0.80;;;;;;;20.42;19.28;94663.56;4928063;28;20023;-67
2022/02/06 08:03:21;;;;;;;1.35;0.80;;;;;;;20.41;19.31;94659.34;4957229;28;20035;-68
2022/02/06 08:05:46;;;;;;;2.90;0.90;;;;;;;20.43;19.37;94651.19;4916955;29;20027;-67
2022/02/06 08:08:14;;;;;;;1.45;0.95;;;;;;;20.46;19.33;94642.72;4928837;28;20035;-67
2022/02/06 08:10:40;;;;;;;1.38;0.93;;;;;;;20.44;19.25;94634.25;4925176;28;20037;-67
2022/02/06 08:13:12;;;;;;;1.10;0.90;;;;;;;20.44;19.51;94626.34;4927107;28;20027;-68
2022/02/06 08:15:38;;;;;;;3.03;0.80;;;;;;;20.44;19.20;94631.63;4920442;28;20038;-68
2022/02/06 08:18:04;;;;;;;1.00;0.80;;;;;;;20.46;19.23;94632.94;4912287;28;20048;-68
2022/02/06 08:20:30;;;;;;;0.80;0.68;;;;;;;20.44;19.07;94628.97;4916591;29;20070;-67
2022/02/06 08:22:56;;;;;;;1.58;1.00;;;;;;;20.43;19.28;94622.91;4925476;29;20042;-68
2022/02/06 08:25:21;;;;;;;1.48;0.93;;;;;;;20.45;19.25;94620.03;4908227;29;20032;-69
2022/02/06 08:27:47;;;;;;;1.60;0.80;;;;;;;20.44;19.01;94615.78;4913021;29;20042;-68
2022/02/06 08:30:13;;;;;;;1.92;0.90;;;;;;;20.39;18.99;94618.38;4893906;29;20035;-68
2022/02/06 08:32:39;;;;;;;1.30;0.90;;;;;;;20.39;19.02;94603.34;4916154;29;20040;-68
2022/02/06 08:35:06;;;;;;;1.55;1.10;;;;;;;20.42;18.90;94599.38;4881296;29;20473;-68
2022/02/06 08:37:32;;;;;;;2.05;1.02;;;;;;;20.37;19.21;94597.50;4914402;29;20092;-68
2022/02/06 08:39:57;;;;;;;2.20;1.00;;;;;;;20.35;19.06;94604.09;4913750;29;20067;-69
2022/02/06 08:42:23;;;;;;;1.88;1.00;;;;;;;20.37;19.26;94618.66;4912159;29;20412;-68
2022/02/06 08:44:50;;;;;;;1.05;0.88;;;;;;;20.34;19.10;94605.16;4909593;29;20088;-68
2022/02/06 08:47:17;;;;;;;2.25;1.00;;;;;;;20.30;19.47;94600.34;4903904;29;20308;-68
2022/02/06 08:49:42;;;;;;;0.80;0.70;;;;;;;20.34;19.10;94600.66;4910346;29;20110;-68
2022/02/06 08:52:09;;;;;;;2.42;1.10;;;;;;;20.32;19.24;94605.41;4912099;29;20031;-67
2022/02/06 08:54:36;;;;;;;1.17;0.85;;;;;;;20.33;19.12;94604.31;4919853;29;20083;-67
2022/02/06 08:57:11;;;;;;;1.92;0.98;;;;;;;20.31;19.19;94594.03;4914345;29;20031;-68
2022/02/06 08:59:46;;;;;;;1.60;0.98;;;;;;;20.34;19.01;94578.75;4909975;29;20111;-68
2022/02/06 09:02:12;;;;;;;1.10;1.00;;;;;;;20.37;19.14;94572.94;4911922;29;20034;-68
2022/02/06 09:04:37;;;;;;;1.70;1.00;;;;;;;20.33;19.13;94551.50;4893138;29;20044;-68
2022/02/06 09:07:03;;;;;;;0.95;0.80;;;;;;;20.35;19.10;94559.19;4905797;29;20032;-68
2022/02/06 09:09:29;;;;;;;1.73;1.00;;;;;;;20.35;19.02;94567.09;4892625;29;20028;-68
2022/02/06 09:11:54;;;;;;;2.58;1.00;;;;;;;20.30;19.22;94560.75;4893851;29;20032;-68
2022/02/06 09:14:22;;;;;;;1.27;1.00;;;;;;;20.29;19.24;94561.00;4895316;29;20036;-67
2022/02/06 09:16:47;;;;;;;1.67;0.90;;;;;;;20.29;18.85;94559.13;4917108;29;20039;-67
2022/02/06 09:19:22;;;;;;;1.52;0.82;;;;;;;20.29;19.00;94559.13;4924058;29;20038;-67
2022/02/06 09:21:47;;;;;;;1.60;0.88;;;;;;;20.29;18.85;94572.34;4922530;29;20043;-67
2022/02/06 09:24:13;;;;;;;1.75;1.00;;;;;;;20.31;19.19;94565.00;4893211;29;20028;-67
2022/02/06 09:26:39;;;;;;;1.85;0.95;;;;;;;20.30;18.98;94566.03;4890390;29;20054;-67
2022/02/06 09:29:04;;;;;;;2.38;1.00;;;;;;;20.30;19.31;94573.16;4899811;29;20079;-68
2022/02/06 09:31:30;;;;;;;1.20;0.95;;;;;;;20.31;19.11;94572.91;4896039;29;20039;-68
2022/02/06 09:36:24;;;;;;;1.38;0.90;;;;;;;20.31;19.00;94565.00;4897217;29;20031;-67
2022/02/06 09:38:57;;;;;;;1.70;1.10;;;;;;;20.24;19.02;94561.78;4898722;29;20031;-67
2022/02/06 09:41:25;;;;;;;1.33;1.02;;;;;;;20.29;19.25;94559.13;4913715;29;20039;-67
2022/02/06 09:43:50;;;;;;;1.75;1.10;;;;;;;20.29;19.07;94551.22;4926183;29;20023;-67
2022/02/06 09:46:18;;;;;;;1.50;1.00;;;;;;;20.31;19.06;94553.63;4910901;29;20034;-68
2022/02/06 09:48:43;;;;;;;3.92;1.10;;;;;;;20.30;19.23;94552.81;4895502;28;20110;-67
2022/02/06 09:51:09;;;;;;;1.42;0.93;;;;;;;20.30;19.16;94552.03;4930490;28;20058;-68
2022/02/06 09:53:35;;;;;;;2.45;1.00;;;;;;;20.38;20.05;94540.19;4930997;28;20360;-68
2022/02/06 09:56:02;;;;;;;1.35;0.85;;;;;;;20.35;21.16;94536.19;4917447;28;20089;-66
2022/02/06 10:01:14;;;;;;;1.23;0.90;;;;;;;20.33;20.13;94548.88;4877926;29;20044;-69
2022/02/06 10:03:44;;;;;;;2.60;1.00;;;;;;;20.32;19.82;94552.56;4886090;29;20064;-68
2022/02/06 10:06:20;;;;;;;1.20;0.87;;;;;;;20.30;19.87;94549.41;4914616;29;20063;-69
2022/02/06 10:08:56;;;;;;;2.42;1.08;;;;;;;20.23;19.87;94531.13;4882350;29;20060;-69
2022/02/06 10:11:22;;;;;;;1.90;1.10;;;;;;;20.23;19.91;94527.69;4910917;29;20088;-69
2022/02/06 10:13:48;;;;;;;2.00;1.10;;;;;;;20.20;19.77;94507.88;4884508;29;20033;-69
2022/02/06 10:16:15;;;;;;;4.13;1.27;;;;;;;20.14;19.90;94511.50;4899437;29;20060;-69
2022/02/06 10:18:41;;;;;;;1.80;1.00;;;;;;;20.15;20.11;94497.28;4890006;29;20059;-69
2022/02/06 10:21:08;;;;;;;1.52;1.08;;;;;;;20.15;20.04;94493.84;4883704;29;20041;-69
2022/02/06 10:23:56;;;;;;;2.33;1.17;;;;;;;20.15;20.01;94488.56;4883331;29;20040;-69
2022/02/06 10:26:25;;;;;;;1.40;1.00;;;;;;;20.16;20.22;94498.84;4883898;29;20044;-69
2022/02/06 10:29:21;;;;;;;2.10;1.10;;;;;;;20.09;20.01;94503.59;4893614;29;20037;-69
2022/02/06 10:31:51;;;;;;;1.83;1.15;;;;;;;20.11;20.21;94490.94;4901973;29;20041;-69
2022/02/06 10:34:35;;;;;;;2.38;1.10;;;;;;;20.19;20.42;94490.44;4866312;29;20055;-69
2022/02/06 10:37:20;;;;;;;2.13;1.10;;;;;;;20.04;20.42;94487.72;4913987;29;20047;-69
2022/02/06 10:40:07;;;;;;;3.05;1.10;;;;;;;20.04;20.69;94498.25;4857967;29;20056;-69
2022/02/06 10:42:36;;;;;;;1.58;1.10;;;;;;;20.01;20.38;94493.47;4869480;29;20068;-69
2022/02/06 10:45:20;;;;;;;1.85;1.08;;;;;;;20.07;20.63;94488.00;4855788;29;20124;-69
2022/02/06 10:47:47;;;;;;;2.65;1.20;;;;;;;19.97;20.93;94482.66;4868469;29;20113;-69
2022/02/06 10:50:18;;;;;;;2.35;1.15;;;;;;;19.95;21.04;94483.94;4860396;29;20041;-69
2022/02/06 10:52:44;;;;;;;3.83;1.30;;;;;;;19.99;20.93;94495.59;4857376;29;20044;-69
2022/02/06 10:55:09;;;;;;;2.80;1.08;;;;;;;20.01;20.62;94488.19;4854390;29;20070;-69
2022/02/06 10:57:38;;;;;;;3.88;1.15;;;;;;;20.01;20.88;94473.19;4851058;29;20045;-69
2022/02/06 11:00:06;;;;;;;2.10;0.90;;;;;;;20.04;20.78;94469.22;4840582;29;20055;-69
2022/02/06 11:03:04;;;;;;;2.20;0.90;;;;;;;20.05;20.79;94465.56;4849255;29;20072;-68
2022/02/06 11:05:47;;;;;;;2.25;1.10;;;;;;;20.13;20.93;94453.72;4813024;29;20129;-69
2022/02/06 11:08:29;;;;;;;1.90;0.90;;;;;;;20.17;20.82;94445.00;4800657;29;20140;-69
2022/02/06 11:10:58;;;;;;;1.20;0.90;;;;;;;20.15;20.83;94449.75;4833746;29;20033;-69
2022/02/06 11:13:24;;;;;;;1.33;1.02;;;;;;;20.19;20.65;94431.56;4874241;29;20040;-69
2022/02/06 11:15:52;;;;;;;1.83;0.98;;;;;;;20.16;20.95;94411.72;4864650;29;20059;-69
2022/02/06 11:18:32;;;;;;;1.55;0.80;;;;;;;20.19;20.61;94399.88;4874661;29;20044;-69
2022/02/06 11:21:18;;;;;;;2.33;1.00;;;;;;;20.26;20.67;94395.16;4884682;29;20044;-69
2022/02/06 11:23:54;;;;;;;2.72;0.85;;;;;;;20.24;20.88;94419.19;4874392;29;20111;-69
2022/02/06 11:26:24;;;;;;;2.80;0.95;;;;;;;20.22;20.77;94394.88;4877818;29;20048;-69
2022/02/06 11:28:54;;;;;;;3.10;1.00;;;;;;;20.19;20.61;94384.81;4859565;29;20095;-69
2022/02/06 11:31:22;;;;;;;1.80;0.90;;;;;;;20.25;20.50;94377.72;4876022;29;20044;-69
2022/02/06 11:34:05;;;;;;;2.25;0.88;;;;;;;20.20;21.14;94383.78;4799788;29;20617;-66
2022/02/06 11:45:16;;;;;;;2.97;1.05;;;;;;;20.17;20.94;94342.03;4842605;29;20048;-70
2022/02/06 11:47:45;;;;;;;1.50;0.85;;;;;;;20.14;20.82;94373.44;4850753;29;20049;-69
2022/02/06 11:50:12;;;;;;;3.05;0.77;;;;;;;20.17;20.70;94367.66;4825951;29;20057;-69
2022/02/06 11:52:49;;;;;;;1.38;0.88;;;;;;;20.15;20.56;94356.56;4834521;29;20045;-70
2022/02/06 11:55:45;;;;;;;2.08;0.85;;;;;;;20.20;20.75;94346.81;4866707;29;20137;-70
2022/02/06 11:58:28;;;;;;;3.45;0.75;;;;;;;20.12;20.58;94347.31;4870104;29;20040;-69
2022/02/06 12:01:06;;;;;;;2.88;1.10;;;;;;;20.15;20.84;94351.28;4868861;29;20634;-69
2022/02/06 12:03:59;;;;;;;2.33;0.95;;;;;;;20.22;20.68;94347.34;4853958;29;20049;-70
2022/02/06 12:06:37;;;;;;;3.55;0.90;;;;;;;20.20;20.65;94323.06;4946858;28;20019;-69
2022/02/06 12:09:02;;;;;;;2.50;1.05;;;;;;;20.18;20.53;94340.19;4949018;28;20374;-69
2022/02/06 12:11:28;;;;;;;1.45;0.80;;;;;;;20.13;20.29;94313.78;4947948;28;20127;-70
2022/02/06 12:14:13;;;;;;;2.53;0.88;;;;;;;20.16;20.49;94314.03;4927216;28;20066;-69
2022/02/06 12:16:51;;;;;;;2.97;1.17;;;;;;;20.08;20.47;94307.41;4948686;28;20059;-69
2022/02/06 12:19:31;;;;;;;2.22;1.00;;;;;;;20.17;20.55;94301.66;4939759;28;20056;-69
2022/02/06 12:21:59;;;;;;;2.05;0.88;;;;;;;20.15;20.45;94291.34;4937679;29;20066;-69
2022/02/06 12:24:49;;;;;;;1.67;0.70;;;;;;;20.14;20.49;94295.03;4912620;29;20042;-70
2022/02/06 12:27:25;;;;;;;1.45;0.80;;;;;;;20.08;20.46;94304.00;4934279;29;20071;-69
2022/02/06 12:29:57;;;;;;;1.50;0.80;;;;;;;20.01;20.74;94306.09;4931847;29;20035;-69
2022/02/06 12:32:29;;;;;;;2.40;0.90;;;;;;;19.98;20.89;94301.34;4940312;28;20136;-70
2022/02/06 12:37:39;;;;;;;1.58;0.70;;;;;;;20.06;20.96;94298.19;4928815;28;20220;-69
2022/02/06 12:40:07;;;;;;;1.75;0.70;;;;;;;20.02;21.02;94310.31;4932292;28;20027;-69
2022/02/06 12:42:59;;;;;;;0.93;0.60;;;;;;;19.96;20.98;94285.75;4932395;28;20046;-69
2022/02/06 12:45:26;;;;;;;1.33;0.70;;;;;;;20.00;21.13;94280.75;4920335;29;20122;-69
2022/02/06 12:48:01;;;;;;;1.30;0.60;;;;;;;19.95;21.20;94270.16;4932516;28;20358;-70
2022/02/06 12:50:31;;;;;;;2.22;0.70;;;;;;;19.92;21.39;94268.84;4927079;29;20023;-69
2022/02/06 12:52:59;;;;;;;2.05;0.75;;;;;;;19.90;21.23;94263.03;4916334;29;20036;-70
2022/02/06 12:55:35;;;;;;;1.23;0.57;;;;;;;19.92;21.47;94274.13;4930817;29;20031;-69
2022/02/06 12:58:01;;;;;;;1.35;0.82;;;;;;;19.88;21.47;94268.56;4918059;29;20064;-69
2022/02/06 13:00:51;;;;;;;3.15;0.80;;;;;;;19.88;21.64;94268.56;4921694;28;20031;-69
2022/02/06 13:03:21;;;;;;;2.35;0.80;;;;;;;19.89;21.48;94262.22;4938650;28;20033;-69
2022/02/06 13:05:54;;;;;;;2.42;0.70;;;;;;;19.89;21.52;94270.16;4953191;28;20027;-69
2022/02/06 13:08:20;;;;;;;1.25;0.68;;;;;;;19.91;21.67;94264.63;4926286;28;20080;-70
2022/02/06 13:10:53;;;;;;;1.92;0.68;;;;;;;19.88;21.54;94258.03;4917132;28;20034;-69
2022/02/06 13:13:23;;;;;;;3.17;0.70;;;;;;;19.85;21.65;94245.34;4934755;28;20034;-69
2022/02/06 13:16:00;;;;;;;1.27;0.60;;;;;;;19.87;21.83;94264.34;4934181;29;20031;-69
2022/02/06 13:24:46;;;;;;;2.22;0.80;;;;;;;19.79;21.66;94235.81;4943382;28;20149;-69
2022/02/06 13:29:49;;;;;;;0.98;0.60;;;;;;;19.88;21.59;94244.81;4920841;29;20035;-69
2022/02/06 13:32:54;;;;;;;1.70;0.80;;;;;;;19.84;21.41;94235.84;4933231;29;20035;-69
2022/02/06 13:35:43;;;;;;;1.67;0.68;;;;;;;19.79;21.27;94225.25;4909958;29;20028;-69
2022/02/06 13:38:12;;;;;;;1.52;0.60;;;;;;;19.75;21.47;94232.13;4912003;29;20038;-70
2022/02/06 13:40:46;;;;;;;1.48;0.68;;;;;;;19.59;21.50;94230.44;4923414;29;20070;-69
2022/02/06 13:43:24;;;;;;;1.30;0.70;;;;;;;19.65;21.34;94217.03;4918084;29;20046;-69
2022/02/06 13:45:58;;;;;;;1.80;0.70;;;;;;;19.62;21.50;94230.72;4911534;29;20031;-69
2022/02/06 13:48:26;;;;;;;1.08;0.60;;;;;;;19.68;21.29;94231.53;4905275;29;20040;-69
2022/02/06 13:50:58;;;;;;;1.77;0.70;;;;;;;19.66;21.32;94225.72;4910836;29;20028;-69
2022/02/06 13:53:25;;;;;;;1.73;0.60;;;;;;;19.68;21.52;94226.25;4911183;29;20047;-69
2022/02/06 13:56:03;;;;;;;1.75;0.60;;;;;;;19.72;21.37;94217.59;4917908;29;20036;-69
2022/02/06 13:58:34;;;;;;;0.70;0.70;;;;;;;19.75;21.63;94207.59;4904573;29;20037;-69
2022/02/06 14:00:59;;;;;;;0.98;0.60;;;;;;;19.81;21.62;94225.78;4896129;29;20028;-69
2022/02/06 14:03:56;;;;;;;1.88;0.60;;;;;;;19.99;21.24;94198.16;4924839;29;20043;-70
2022/02/06 14:06:32;;;;;;;2.75;0.90;;;;;;;19.86;21.50;94199.44;4876744;29;20041;-69
2022/02/06 14:09:10;;;;;;;1.05;0.70;;;;;;;19.83;21.50;94213.13;4847117;29;20071;-69
2022/02/06 14:11:35;;;;;;;1.50;0.65;;;;;;;19.84;21.58;94200.75;4856806;29;20033;-69